createdAt,value
2022-08-17T00:00:33.272Z,11.07
2022-08-17T00:03:03.832Z,10.80
2022-08-17T00:05:33.580Z,10.97
2022-08-17T00:08:01.815Z,11.90
2022-08-17T00:10:30.053Z,11.50
2022-08-17T00:13:00.796Z,10.83
2022-08-17T00:15:29.149Z,10.80
2022-08-17T00:17:57.408Z,10.47
2022-08-17T00:20:30.468Z,10.87
2022-08-17T00:23:06.931Z,9.77
2022-08-17T00:25:35.787Z,10.30
2022-08-17T00:28:04.204Z,9.43
2022-08-17T00:30:50.906Z,10.77
2022-08-17T00:33:20.446Z,9.53
2022-08-17T00:35:50.370Z,9.90
2022-08-17T00:38:18.909Z,9.00
2022-08-17T00:40:48.405Z,8.93
2022-08-17T00:43:18.429Z,10.10
2022-08-17T00:45:47.261Z,9.43
2022-08-17T00:48:23.878Z,9.60
2022-08-17T00:51:01.665Z,9.37
2022-08-17T00:53:32.097Z,9.97
2022-08-17T00:56:01.667Z,9.57
2022-08-17T00:58:35.955Z,10.30
2022-08-17T01:01:05.538Z,9.90
2022-08-17T01:03:34.319Z,10.13
2022-08-17T01:06:04.632Z,9.40
2022-08-17T01:08:33.283Z,10.03
2022-08-17T01:11:02.647Z,9.50
2022-08-17T01:13:36.768Z,10.10
2022-08-17T01:16:11.220Z,10.33
2022-08-17T01:18:39.611Z,9.83
2022-08-17T01:21:19.366Z,9.60
2022-08-17T01:23:48.927Z,9.87
2022-08-17T01:26:17.365Z,9.53
2022-08-17T01:28:53.985Z,9.73
2022-08-17T01:31:24.324Z,10.23
2022-08-17T01:33:52.573Z,10.13
2022-08-17T01:36:20.872Z,10.03
2022-08-17T01:38:50.504Z,9.97
2022-08-17T01:41:18.716Z,10.20
2022-08-17T01:43:48.839Z,9.83
2022-08-17T01:46:18.630Z,10.33
2022-08-17T01:48:47.510Z,10.00
2022-08-17T01:51:16.689Z,11.07
2022-08-17T01:53:49.136Z,9.70
2022-08-17T01:56:20.081Z,9.47
2022-08-17T01:58:48.752Z,9.60
2022-08-17T02:01:17.793Z,9.87
2022-08-17T02:03:53.479Z,10.27
2022-08-17T02:06:29.067Z,9.53
2022-08-17T02:09:02.327Z,9.73
2022-08-17T02:11:33.891Z,9.50
2022-08-17T02:14:04.042Z,10.00
2022-08-17T02:16:36.968Z,10.33
2022-08-17T02:19:07.374Z,9.87
2022-08-17T02:21:35.626Z,10.87
2022-08-17T02:24:04.157Z,9.63
2022-08-17T02:26:33.815Z,9.47
2022-08-17T02:29:02.019Z,9.77
2022-08-17T02:31:31.024Z,9.73
2022-08-17T02:34:04.796Z,9.50
2022-08-17T02:36:34.460Z,8.83
2022-08-17T02:39:03.037Z,8.83
2022-08-17T02:41:31.281Z,8.53
2022-08-17T02:44:01.072Z,8.80
2022-08-17T02:46:30.989Z,9.23
2022-08-17T02:48:59.473Z,9.30
2022-08-17T02:51:27.736Z,9.43
2022-08-17T02:54:40.659Z,9.07
2022-08-17T02:56:44.585Z,9.40
2022-08-17T02:59:14.202Z,9.63
2022-08-17T03:01:42.483Z,9.97
2022-08-17T03:04:10.848Z,9.30
2022-08-17T03:06:39.084Z,9.27
2022-08-17T03:09:07.319Z,9.17
2022-08-17T03:11:35.585Z,9.43
2022-08-17T03:14:03.840Z,9.23
2022-08-17T03:16:33.400Z,9.03
2022-08-17T03:19:02.931Z,8.27
2022-08-17T03:21:31.121Z,9.57
2022-08-17T03:23:59.336Z,9.77
2022-08-17T03:26:29.639Z,9.10
2022-08-17T03:28:58.160Z,8.60
2022-08-17T03:31:26.370Z,8.77
2022-08-17T03:33:56.445Z,9.70
2022-08-17T03:36:24.734Z,8.93
2022-08-17T03:38:52.977Z,9.13
2022-08-17T03:41:23.134Z,8.57
2022-08-17T03:43:51.350Z,9.43
2022-08-17T03:46:36.961Z,9.23
2022-08-17T03:49:24.925Z,9.10
2022-08-17T03:52:10.758Z,9.07
2022-08-17T03:54:57.114Z,9.30
2022-08-17T03:57:25.713Z,9.20
2022-08-17T03:59:53.987Z,8.20
2022-08-17T04:02:25.032Z,8.63
2022-08-17T04:04:54.632Z,6.13
2022-08-17T04:07:24.465Z,5.90
2022-08-17T04:09:53.354Z,6.20
2022-08-17T04:12:22.562Z,5.13
2022-08-17T04:14:53.347Z,5.00
2022-08-17T04:17:22.843Z,5.10
2022-08-17T04:19:51.096Z,5.33
2022-08-17T04:22:33.203Z,4.93
2022-08-17T04:25:03.075Z,5.00
2022-08-17T04:27:31.713Z,5.40
2022-08-17T04:29:59.943Z,5.90
2022-08-17T04:33:00.674Z,5.33
2022-08-17T04:35:19.524Z,5.67
2022-08-17T04:37:49.134Z,5.00
2022-08-17T04:40:50.040Z,5.07
2022-08-17T04:43:19.405Z,5.40
2022-08-17T04:45:55.573Z,5.73
2022-08-17T04:48:29.627Z,6.00
2022-08-17T04:51:05.329Z,5.80
2022-08-17T04:53:34.933Z,5.50
2022-08-17T04:56:03.245Z,5.40
2022-08-17T04:58:31.481Z,5.10
2022-08-17T05:00:59.736Z,6.00
2022-08-17T05:03:27.988Z,5.60
2022-08-17T05:05:56.251Z,5.50
2022-08-17T05:08:24.499Z,5.63
2022-08-17T05:10:54.099Z,5.50
2022-08-17T05:13:23.573Z,5.77
2022-08-17T05:15:54.841Z,6.07
2022-08-17T05:18:24.615Z,5.40
2022-08-17T05:20:53.649Z,6.03
2022-08-17T05:23:22.948Z,5.93
2022-08-17T05:25:52.765Z,5.30
2022-08-17T05:28:26.579Z,5.40
2022-08-17T05:30:56.193Z,5.80
2022-08-17T05:33:26.306Z,6.27
2022-08-17T05:35:56.001Z,6.37
2022-08-17T05:38:25.273Z,6.03
2022-08-17T05:40:54.059Z,6.40
2022-08-17T05:43:24.346Z,6.57
2022-08-17T05:45:58.117Z,6.83
2022-08-17T05:48:39.795Z,6.30
2022-08-17T05:51:27.313Z,6.47
2022-08-17T05:54:02.421Z,6.53
2022-08-17T05:56:49.497Z,6.50
2022-08-17T05:59:23.511Z,6.30
2022-08-17T06:01:57.697Z,6.73
2022-08-17T06:04:32.544Z,6.30
2022-08-17T06:07:07.016Z,6.83
2022-08-17T06:09:40.173Z,6.37
2022-08-17T06:12:19.742Z,6.40
2022-08-17T06:14:56.098Z,6.50
2022-08-17T06:17:27.042Z,6.80
2022-08-17T06:19:58.149Z,6.47
2022-08-17T06:22:28.566Z,6.70
2022-08-17T06:24:58.404Z,6.20
2022-08-17T06:27:30.628Z,6.37
2022-08-17T06:30:05.439Z,6.83
2022-08-17T06:32:33.654Z,6.27
2022-08-17T06:35:03.360Z,6.73
2022-08-17T06:37:44.241Z,6.27
2022-08-17T06:40:18.223Z,6.33
2022-08-17T06:43:04.105Z,6.43
2022-08-17T06:45:37.134Z,6.50
2022-08-17T06:48:08.979Z,6.37
2022-08-17T06:50:38.382Z,6.90
2022-08-17T06:53:11.636Z,6.60
2022-08-17T06:55:45.585Z,6.90
2022-08-17T06:58:15.863Z,6.77
2022-08-17T07:00:48.191Z,6.80
2022-08-17T07:03:20.861Z,7.10
2022-08-17T07:05:51.123Z,6.43
2022-08-17T07:08:23.432Z,6.40
2022-08-17T07:10:56.977Z,7.10
2022-08-17T07:13:29.270Z,6.37
2022-08-17T07:16:04.688Z,6.40
2022-08-17T07:18:34.155Z,6.57
2022-08-17T07:21:08.370Z,5.97
2022-08-17T07:23:41.302Z,7.17
2022-08-17T07:26:13.188Z,6.60
2022-08-17T07:28:41.673Z,7.03
2022-08-17T07:31:14.056Z,6.87
2022-08-17T07:33:53.009Z,6.63
2022-08-17T07:36:29.855Z,6.70
2022-08-17T07:38:59.173Z,7.20
2022-08-17T07:41:53.486Z,7.20
2022-08-17T07:44:18.154Z,7.13
2022-08-17T07:47:10.068Z,7.17
2022-08-17T07:49:39.246Z,7.50
2022-08-17T07:52:24.262Z,7.30
2022-08-17T07:54:58.043Z,8.17
2022-08-17T07:57:33.923Z,9.00
2022-08-17T08:00:12.826Z,8.80
2022-08-17T08:02:47.798Z,9.40
2022-08-17T08:05:48.626Z,9.07
2022-08-17T08:08:22.850Z,7.90
2022-08-17T08:11:00.156Z,9.00
2022-08-17T08:13:30.193Z,8.23
2022-08-17T08:16:13.658Z,8.33
2022-08-17T08:18:54.369Z,8.97
2022-08-17T08:21:29.934Z,9.13
2022-08-17T08:24:01.290Z,9.07
2022-08-17T08:26:33.866Z,9.20
2022-08-17T08:29:05.406Z,9.63
2022-08-17T08:31:42.338Z,8.63
2022-08-17T08:34:47.432Z,9.00
2022-08-17T08:37:19.116Z,9.07
2022-08-17T08:39:58.470Z,10.03
2022-08-17T08:42:32.848Z,9.37
2022-08-17T08:45:06.027Z,10.10
2022-08-17T08:47:52.430Z,10.13
2022-08-17T08:50:37.049Z,10.07
2022-08-17T08:53:13.213Z,9.93
2022-08-17T08:55:50.873Z,10.47
2022-08-17T08:58:32.212Z,11.03
2022-08-17T09:01:16.721Z,9.97
2022-08-17T09:04:02.827Z,10.33
2022-08-17T09:06:49.992Z,10.40
2022-08-17T09:09:22.649Z,10.67
2022-08-17T09:12:01.211Z,10.93
2022-08-17T09:14:45.021Z,10.67
2022-08-17T09:17:17.149Z,10.93
2022-08-17T09:19:50.020Z,11.50
2022-08-17T09:22:24.523Z,11.10
2022-08-17T09:24:56.944Z,11.43
2022-08-17T09:27:28.951Z,10.90
2022-08-17T09:30:00.650Z,10.07
2022-08-17T09:32:33.131Z,10.90
2022-08-17T09:35:03.195Z,11.03
2022-08-17T09:37:35.758Z,10.47
2022-08-17T09:40:09.535Z,11.57
2022-08-17T09:42:41.788Z,11.27
2022-08-17T09:45:17.532Z,11.40
2022-08-17T09:47:50.109Z,11.93
2022-08-17T09:50:55.511Z,11.07
2022-08-17T09:53:11.552Z,12.37
2022-08-17T09:55:54.442Z,12.73
2022-08-17T09:58:29.217Z,11.80
2022-08-17T10:00:59.300Z,12.57
2022-08-17T10:03:35.817Z,13.23
2022-08-17T10:06:07.761Z,12.00
2022-08-17T10:08:42.780Z,12.27
2022-08-17T10:11:18.336Z,13.07
2022-08-17T10:13:52.948Z,12.83
2022-08-17T10:16:24.817Z,11.67
2022-08-17T10:18:58.051Z,13.03
2022-08-17T10:21:44.778Z,12.30
2022-08-17T10:24:33.900Z,13.17
2022-08-17T10:27:03.193Z,12.10
2022-08-17T10:29:49.131Z,12.80
2022-08-17T10:32:23.728Z,13.03
2022-08-17T10:35:04.553Z,12.37
2022-08-17T10:37:44.100Z,11.97
2022-08-17T10:40:24.494Z,12.77
2022-08-17T10:42:58.949Z,13.03
2022-08-17T10:45:29.482Z,13.13
2022-08-17T10:48:05.875Z,12.07
2022-08-17T10:50:47.453Z,11.53
2022-08-17T10:53:30.550Z,11.33
2022-08-17T10:56:13.670Z,11.10
2022-08-17T10:58:50.382Z,11.37
2022-08-17T11:01:19.037Z,10.90
2022-08-17T11:03:54.868Z,10.50
2022-08-17T11:06:26.861Z,10.37
2022-08-17T11:09:09.942Z,10.50
2022-08-17T11:11:55.388Z,10.70
2022-08-17T11:14:35.895Z,10.77
2022-08-17T11:17:11.272Z,10.37
2022-08-17T11:19:50.576Z,10.47
2022-08-17T11:22:33.543Z,11.30
2022-08-17T11:25:13.149Z,10.90
2022-08-17T11:27:41.701Z,10.53
2022-08-17T11:30:14.771Z,10.27
2022-08-17T11:32:47.610Z,10.77
2022-08-17T11:35:29.578Z,11.93
2022-08-17T11:38:16.127Z,11.60
2022-08-17T11:41:10.237Z,12.67
2022-08-17T11:43:48.707Z,12.43
2022-08-17T11:46:22.014Z,11.67
2022-08-17T11:49:16.157Z,12.30
2022-08-17T11:52:09.246Z,11.47
2022-08-17T11:54:41.873Z,11.30
2022-08-17T11:57:24.969Z,12.63
2022-08-17T11:59:58.440Z,12.60
2022-08-17T12:02:47.556Z,12.90
2022-08-17T12:05:28.235Z,11.47
2022-08-17T12:08:02.379Z,12.90
2022-08-17T12:10:32.471Z,12.57
2022-08-17T12:13:01.935Z,11.00
2022-08-17T12:15:37.733Z,11.73
2022-08-17T12:18:07.356Z,12.57
2022-08-17T12:20:37.196Z,12.17
2022-08-17T12:23:07.988Z,11.47
2022-08-17T12:25:39.909Z,10.77
2022-08-17T12:28:27.517Z,10.97
2022-08-17T12:30:57.837Z,12.27
2022-08-17T12:33:28.923Z,11.73
2022-08-17T12:35:59.932Z,11.93
2022-08-17T12:38:32.981Z,11.40
2022-08-17T12:41:23.325Z,11.50
2022-08-17T12:44:01.492Z,10.37
2022-08-17T12:46:29.991Z,11.33
2022-08-17T12:49:13.756Z,12.17
2022-08-17T12:51:44.518Z,11.10
2022-08-17T12:54:23.432Z,11.63
2022-08-17T12:56:51.698Z,11.40
2022-08-17T12:59:29.600Z,11.03
2022-08-17T13:01:58.996Z,11.83
2022-08-17T13:04:29.758Z,11.60
2022-08-17T13:06:59.890Z,13.80
2022-08-17T13:09:36.051Z,13.77
2022-08-17T13:12:09.343Z,14.77
2022-08-17T13:14:37.690Z,14.17
2022-08-17T13:17:11.156Z,15.67
2022-08-17T13:19:49.562Z,15.20
2022-08-17T13:22:18.296Z,14.43
2022-08-17T13:24:54.133Z,15.37
2022-08-17T13:27:23.449Z,15.73
2022-08-17T13:29:53.425Z,16.27
2022-08-17T13:32:23.908Z,16.63
2022-08-17T13:35:15.463Z,15.37
2022-08-17T13:37:57.339Z,16.80
2022-08-17T13:40:30.744Z,15.90
2022-08-17T13:42:59.261Z,15.13
2022-08-17T13:45:50.790Z,13.70
2022-08-17T13:48:24.523Z,14.40
2022-08-17T13:51:06.446Z,14.03
2022-08-17T13:53:35.868Z,13.60
2022-08-17T13:56:07.449Z,11.50
2022-08-17T13:58:57.352Z,11.67
2022-08-17T14:01:33.568Z,10.70
2022-08-17T14:04:03.003Z,11.90
2022-08-17T14:06:52.594Z,10.30
2022-08-17T14:09:22.503Z,10.57
2022-08-17T14:11:51.030Z,10.17
2022-08-17T14:14:19.605Z,9.53
2022-08-17T14:16:48.393Z,10.47
2022-08-17T14:19:16.672Z,10.17
2022-08-17T14:21:47.131Z,9.47
2022-08-17T14:24:22.185Z,9.33
2022-08-17T14:26:52.245Z,10.00
2022-08-17T14:29:21.040Z,9.63
2022-08-17T14:31:54.222Z,9.53
2022-08-17T14:34:23.289Z,9.20
2022-08-17T14:36:53.121Z,8.53
2022-08-17T14:39:21.514Z,9.30
2022-08-17T14:41:49.915Z,9.57
2022-08-17T14:44:18.290Z,8.90
2022-08-17T14:46:47.907Z,8.93
2022-08-17T14:49:17.077Z,9.07
2022-08-17T14:51:45.346Z,9.30
2022-08-17T14:54:33.040Z,8.83
2022-08-17T14:57:23.253Z,9.30
2022-08-17T14:59:54.516Z,9.33
2022-08-17T15:02:30.495Z,9.93
2022-08-17T15:05:03.104Z,9.50
2022-08-17T15:07:31.804Z,8.87
2022-08-17T15:10:02.102Z,8.90
2022-08-17T15:12:34.211Z,9.70
2022-08-17T15:15:04.918Z,8.63
2022-08-17T15:17:45.212Z,9.47
2022-08-17T15:20:15.447Z,8.80
2022-08-17T15:22:44.437Z,9.17
2022-08-17T15:25:15.141Z,8.80
2022-08-17T15:27:44.013Z,9.40
2022-08-17T15:30:12.894Z,9.00
2022-08-17T15:32:50.639Z,8.67
2022-08-17T15:35:27.848Z,9.17
2022-08-17T15:37:57.245Z,8.43
2022-08-17T15:40:26.933Z,8.60
2022-08-17T15:42:55.249Z,9.20
2022-08-17T15:45:26.466Z,8.90
2022-08-17T15:47:54.913Z,10.20
2022-08-17T15:50:23.223Z,10.10
2022-08-17T15:52:56.048Z,8.90
2022-08-17T15:55:24.472Z,9.50
2022-08-17T15:57:54.101Z,9.87
2022-08-17T16:00:24.014Z,9.40
2022-08-17T16:03:45.966Z,9.03
2022-08-17T16:05:41.041Z,10.63
2022-08-17T16:08:10.941Z,10.57
2022-08-17T16:10:39.276Z,10.03
2022-08-17T16:13:17.517Z,8.93
2022-08-17T16:15:51.031Z,10.27
2022-08-17T16:18:25.052Z,9.23
2022-08-17T16:20:53.307Z,9.17
2022-08-17T16:23:21.524Z,9.30
2022-08-17T16:25:53.780Z,8.43
2022-08-17T16:28:30.875Z,8.57
2022-08-17T16:31:05.633Z,8.60
2022-08-17T16:33:36.386Z,10.90
2022-08-17T16:36:04.809Z,9.57
2022-08-17T16:38:33.026Z,9.63
2022-08-17T16:41:01.452Z,9.80
2022-08-17T16:43:31.208Z,9.73
2022-08-17T16:46:00.698Z,9.57
2022-08-17T16:48:29.592Z,9.50
2022-08-17T16:51:04.182Z,8.63
2022-08-17T16:53:32.995Z,9.00
2022-08-17T16:56:01.203Z,9.43
2022-08-17T16:58:30.797Z,9.73
2022-08-17T17:00:59.478Z,8.90
2022-08-17T17:03:29.303Z,9.10
2022-08-17T17:06:06.361Z,8.50
2022-08-17T17:08:39.491Z,9.27
2022-08-17T17:11:14.413Z,9.20
2022-08-17T17:13:46.740Z,10.00
2022-08-17T17:16:19.200Z,10.87
2022-08-17T17:18:53.493Z,9.67
2022-08-17T17:21:26.294Z,9.97
2022-08-17T17:23:56.629Z,10.17
2022-08-17T17:26:35.990Z,11.00
2022-08-17T17:29:13.139Z,9.47
2022-08-17T17:31:43.005Z,10.07
2022-08-17T17:34:13.654Z,10.30
2022-08-17T17:36:43.361Z,10.23
2022-08-17T17:39:13.712Z,8.93
2022-08-17T17:41:47.108Z,10.23
2022-08-17T17:44:19.728Z,10.43
2022-08-17T17:46:51.163Z,9.97
2022-08-17T17:49:19.920Z,9.47
2022-08-17T17:52:08.500Z,10.00
2022-08-17T17:54:45.488Z,10.97
2022-08-17T17:57:20.487Z,9.93
2022-08-17T17:59:53.490Z,10.20
2022-08-17T18:02:45.451Z,10.07
2022-08-17T18:05:34.236Z,11.20
2022-08-17T18:08:11.000Z,10.90
2022-08-17T18:10:49.064Z,9.87
2022-08-17T18:13:22.457Z,10.87
2022-08-17T18:16:00.738Z,10.70
2022-08-17T18:18:37.816Z,10.30
2022-08-17T18:21:08.039Z,10.33
2022-08-17T18:23:36.598Z,10.20
2022-08-17T18:26:04.841Z,9.90
2022-08-17T18:28:34.524Z,10.57
2022-08-17T18:31:08.649Z,9.70
2022-08-17T18:33:37.536Z,10.57
2022-08-17T18:36:06.600Z,10.53
2022-08-17T18:38:35.732Z,11.13
2022-08-17T18:41:06.032Z,10.43
2022-08-17T18:43:43.959Z,11.17
2022-08-17T18:46:28.549Z,10.70
2022-08-17T18:48:59.057Z,11.07
2022-08-17T18:51:41.656Z,10.70
2022-08-17T18:54:16.085Z,10.40
2022-08-17T18:56:45.166Z,11.27
2022-08-17T18:59:19.103Z,10.83
2022-08-17T19:02:05.068Z,11.47
2022-08-17T19:04:37.435Z,11.30
2022-08-17T19:07:13.818Z,11.90
2022-08-17T19:09:44.276Z,10.70
2022-08-17T19:12:17.904Z,10.43
2022-08-17T19:14:46.157Z,11.13
2022-08-17T19:17:22.317Z,11.03
2022-08-17T19:19:53.927Z,11.13
2022-08-17T19:22:28.493Z,11.77
2022-08-17T19:25:02.814Z,11.53
2022-08-17T19:27:46.224Z,10.73
2022-08-17T19:30:16.294Z,10.83
2022-08-17T19:32:45.913Z,11.20
2022-08-17T19:35:17.585Z,11.23
2022-08-17T19:37:53.544Z,10.70
2022-08-17T19:40:50.999Z,11.93
2022-08-17T19:43:17.341Z,11.80
2022-08-17T19:45:51.808Z,11.97
2022-08-17T19:48:24.467Z,11.83
2022-08-17T19:50:56.930Z,11.53
2022-08-17T19:53:47.417Z,11.93
2022-08-17T19:56:21.425Z,11.77
2022-08-17T19:58:53.228Z,12.10
2022-08-17T20:01:31.211Z,12.67
2022-08-17T20:04:08.501Z,11.67
2022-08-17T20:06:38.622Z,11.77
2022-08-17T20:09:15.146Z,11.57
2022-08-17T20:11:46.937Z,12.60
2022-08-17T20:14:16.391Z,11.67
2022-08-17T20:16:44.701Z,12.40
2022-08-17T20:19:22.226Z,12.97
2022-08-17T20:21:53.945Z,12.73
2022-08-17T20:24:24.099Z,12.37
2022-08-17T20:26:55.454Z,12.87
2022-08-17T20:29:40.084Z,12.87
2022-08-17T20:32:23.749Z,13.07
2022-08-17T20:35:03.221Z,13.23
2022-08-17T20:37:33.094Z,13.13
2022-08-17T20:40:21.345Z,13.07
2022-08-17T20:42:49.660Z,13.13
2022-08-17T20:45:42.110Z,11.73
2022-08-17T20:48:36.321Z,13.10
2022-08-17T20:51:17.095Z,12.30
2022-08-17T20:54:03.828Z,13.37
2022-08-17T20:56:56.205Z,13.30
2022-08-17T20:59:39.262Z,14.03
2022-08-17T21:02:18.653Z,13.97
2022-08-17T21:05:00.718Z,14.17
2022-08-17T21:07:33.037Z,12.60
2022-08-17T21:10:13.861Z,13.77
2022-08-17T21:12:47.912Z,13.93
2022-08-17T21:15:28.471Z,13.23
2022-08-17T21:18:03.044Z,13.53
2022-08-17T21:20:34.152Z,13.47
2022-08-17T21:23:10.925Z,13.77
2022-08-17T21:25:51.880Z,14.00
2022-08-17T21:28:33.887Z,13.70
2022-08-17T21:31:08.521Z,13.03
2022-08-17T21:33:38.891Z,13.77
2022-08-17T21:36:23.600Z,13.53
2022-08-17T21:38:58.001Z,13.80
2022-08-17T21:41:27.444Z,13.47
2022-08-17T21:43:57.721Z,13.00
2022-08-17T21:46:28.857Z,13.93
2022-08-17T21:48:59.223Z,12.63
2022-08-17T21:51:29.467Z,13.70
2022-08-17T21:54:00.647Z,14.07
2022-08-17T21:56:32.032Z,13.33
2022-08-17T21:59:01.725Z,12.80
2022-08-17T22:01:31.151Z,12.93
2022-08-17T22:04:04.941Z,14.23
2022-08-17T22:06:37.500Z,13.87
2022-08-17T22:09:15.630Z,13.23
2022-08-17T22:11:52.448Z,13.00
2022-08-17T22:14:21.406Z,13.17
2022-08-17T22:16:50.530Z,13.50
2022-08-17T22:19:21.034Z,12.63
2022-08-17T22:21:49.265Z,13.27
2022-08-17T22:24:21.675Z,13.47
2022-08-17T22:27:00.915Z,13.47
2022-08-17T22:29:57.128Z,13.73
2022-08-17T22:32:47.092Z,12.77
2022-08-17T22:35:20.116Z,13.03
2022-08-17T22:37:48.426Z,14.20
2022-08-17T22:40:28.931Z,13.47
2022-08-17T22:42:57.835Z,14.57
2022-08-17T22:45:26.485Z,14.07
2022-08-17T22:47:55.944Z,15.00
2022-08-17T22:50:25.436Z,15.77
2022-08-17T22:53:16.326Z,15.43
2022-08-17T22:56:09.516Z,15.20
2022-08-17T22:59:01.319Z,15.07
2022-08-17T23:01:31.332Z,16.10
2022-08-17T23:04:01.186Z,14.60
2022-08-17T23:06:29.500Z,15.80
2022-08-17T23:08:57.989Z,15.30
2022-08-17T23:11:42.934Z,16.23
2022-08-17T23:14:18.351Z,15.33
2022-08-17T23:16:46.725Z,14.93
2022-08-17T23:19:15.917Z,14.20
2022-08-17T23:21:44.741Z,14.47
2022-08-17T23:24:16.477Z,14.87
2022-08-17T23:26:46.025Z,14.77
2022-08-17T23:29:14.249Z,15.67
2022-08-17T23:31:42.621Z,15.30
2022-08-17T23:34:13.236Z,14.83
2022-08-17T23:36:41.480Z,15.07
2022-08-17T23:39:09.862Z,14.47
2022-08-17T23:41:40.010Z,16.27
2022-08-17T23:44:09.605Z,15.27
2022-08-17T23:46:37.831Z,15.63
2022-08-17T23:49:06.612Z,17.63
2022-08-17T23:51:38.166Z,18.23
2022-08-17T23:54:12.515Z,17.00
2022-08-17T23:56:45.429Z,17.40
2022-08-17T23:59:15.433Z,19.20
